Time;durP1;ratioP1;P1;durP2;ratioP2;P2;SDS_P1;SDS_P2;PMS_P1;PMS_P2;Temp;Humidity;BMP_temperature;BMP_pressure;BME280_temperature;BME280_humidity;BME280_pressure;Samples;Min_cycle;Max_cycle;Signal;HPM_P1;HPM_P2
2023/05/09 00:01:10;;;;;;;15.43;13.50;;;15.60;99.90;;;;;;5071988;28;20021;-47
2023/05/09 00:03:35;;;;;;;14.82;13.32;;;15.60;99.90;;;;;;5071224;28;20031;-48
2023/05/09 00:06:01;;;;;;;19.55;13.70;;;15.60;99.90;;;;;;5071845;28;20040;-47
2023/05/09 00:08:27;;;;;;;14.73;13.23;;;15.50;99.90;;;;;;5053626;28;20025;-50
2023/05/09 00:10:52;;;;;;;14.63;12.63;;;15.60;99.90;;;;;;5071908;28;20174;-44
2023/05/09 00:13:18;;;;;;;17.15;14.02;;;15.60;99.90;;;;;;5072034;28;20033;-48
2023/05/09 00:15:45;;;;;;;14.68;13.18;;;15.60;99.90;;;;;;5071747;28;20020;-50
2023/05/09 00:18:11;;;;;;;14.85;13.27;;;15.60;99.90;;;;;;5071699;28;20526;-46
2023/05/09 00:20:39;;;;;;;14.52;12.73;;;15.70;99.90;;;;;;5071371;28;20023;-45
2023/05/09 00:23:06;;;;;;;14.98;12.80;;;15.70;99.90;;;;;;5071834;28;20087;-49
2023/05/09 00:25:31;;;;;;;13.43;12.13;;;15.60;99.90;;;;;;5071663;28;20029;-49
2023/05/09 00:27:57;;;;;;;14.88;13.23;;;15.60;99.90;;;;;;5071298;28;20051;-45
2023/05/09 00:30:23;;;;;;;12.98;11.75;;;15.70;99.90;;;;;;5071435;28;20031;-47
2023/05/09 00:32:48;;;;;;;17.98;12.70;;;15.70;99.90;;;;;;5071607;28;20028;-50
2023/05/09 00:35:14;;;;;;;16.58;13.10;;;15.60;99.90;;;;;;5071535;28;20029;-49
2023/05/09 00:37:40;;;;;;;14.30;12.77;;;15.60;99.90;;;;;;5071191;28;20024;-48
2023/05/09 00:40:06;;;;;;;17.40;13.15;;;15.60;99.90;;;;;;5071648;28;20396;-48
2023/05/09 00:42:32;;;;;;;18.80;13.77;;;15.60;99.90;;;;;;5071286;28;20033;-50
2023/05/09 00:44:57;;;;;;;15.10;13.50;;;15.60;99.90;;;;;;5071392;28;20020;-45
2023/05/09 00:47:23;;;;;;;16.63;13.98;;;15.60;99.90;;;;;;5053136;28;20032;-46
2023/05/09 00:49:49;;;;;;;15.52;13.38;;;15.60;99.90;;;;;;5071796;28;20029;-48
2023/05/09 00:52:16;;;;;;;14.40;13.02;;;15.60;99.90;;;;;;5071252;28;20027;-48
2023/05/09 00:54:42;;;;;;;16.67;13.07;;;15.60;99.90;;;;;;5071237;28;20035;-47
2023/05/09 00:57:07;;;;;;;14.60;13.00;;;15.60;99.90;;;;;;5071192;28;20028;-49
2023/05/09 00:59:33;;;;;;;17.05;13.70;;;15.60;99.90;;;;;;5071209;28;20467;-47
2023/05/09 01:01:59;;;;;;;15.57;13.30;;;15.60;99.90;;;;;;5071049;28;20104;-50
2023/05/09 01:04:25;;;;;;;15.80;13.13;;;15.60;99.90;;;;;;5070274;28;20389;-52
2023/05/09 01:07:01;;;;;;;15.95;13.80;;;15.60;99.90;;;;;;5070870;28;20024;-44
2023/05/09 01:09:49;;;;;;;17.20;13.27;;;15.60;99.90;;;;;;5071260;28;20028;-48
2023/05/09 01:12:31;;;;;;;16.10;13.82;;;15.60;99.90;;;;;;5070989;28;20605;-47
2023/05/09 01:15:03;;;;;;;17.63;13.98;;;15.50;99.90;;;;;;5071094;28;20062;-48
2023/05/09 01:17:32;;;;;;;16.90;14.30;;;15.60;99.90;;;;;;5070829;28;20031;-45
2023/05/09 01:20:11;;;;;;;22.55;14.57;;;15.50;99.90;;;;;;5053195;28;20017;-51
2023/05/09 01:22:42;;;;;;;16.92;14.40;;;15.50;99.90;;;;;;5070904;28;20561;-45
2023/05/09 01:25:38;;;;;;;16.80;15.00;;;15.60;99.90;;;;;;5071200;28;20488;-45
2023/05/09 01:28:15;;;;;;;15.98;13.73;;;15.60;99.90;;;;;;5070675;28;20021;-46
2023/05/09 01:30:45;;;;;;;15.93;13.38;;;15.50;99.90;;;;;;5070780;28;20078;-45
2023/05/09 01:33:16;;;;;;;18.45;13.50;;;15.50;99.90;;;;;;5074541;28;20017;-45
2023/05/09 01:35:47;;;;;;;18.75;14.63;;;15.50;99.90;;;;;;5057011;28;20020;-47
2023/05/09 01:38:16;;;;;;;17.25;15.38;;;15.50;99.90;;;;;;5074673;28;20035;-45
2023/05/09 01:40:46;;;;;;;19.55;15.52;;;15.50;99.90;;;;;;5074943;28;20047;-49
2023/05/09 01:43:15;;;;;;;20.55;14.93;;;15.50;99.90;;;;;;5075259;28;20460;-45
2023/05/09 01:45:41;;;;;;;16.45;14.75;;;15.50;99.90;;;;;;5075051;28;20029;-47
2023/05/09 01:48:08;;;;;;;19.42;15.77;;;15.40;99.90;;;;;;5074478;28;20427;-46
2023/05/09 01:50:35;;;;;;;18.98;15.80;;;15.40;99.90;;;;;;5074854;28;20426;-45
2023/05/09 01:53:04;;;;;;;20.48;15.30;;;15.40;99.90;;;;;;5074906;28;20074;-48
2023/05/09 01:55:32;;;;;;;21.15;16.02;;;15.40;99.90;;;;;;5074454;28;20400;-49
2023/05/09 01:57:58;;;;;;;17.70;15.52;;;15.30;99.90;;;;;;5074349;28;20031;-45
2023/05/09 02:00:24;;;;;;;18.00;16.10;;;15.30;99.90;;;;;;5074376;28;20016;-45
2023/05/09 02:02:51;;;;;;;19.75;16.35;;;15.30;99.90;;;;;;5074725;28;20574;-45
2023/05/09 02:05:17;;;;;;;16.40;14.50;;;15.30;99.90;;;;;;5073170;28;20021;-48
2023/05/09 02:07:45;;;;;;;14.75;13.25;;;15.30;99.90;;;;;;5074767;28;20029;-48
2023/05/09 02:10:11;;;;;;;14.73;13.30;;;15.20;99.90;;;;;;5074573;28;20179;-50
2023/05/09 02:12:37;;;;;;;14.00;12.30;;;15.20;99.90;;;;;;5074007;28;20016;-49
2023/05/09 02:15:04;;;;;;;14.80;13.30;;;15.20;99.90;;;;;;5074147;28;20101;-48
2023/05/09 02:17:30;;;;;;;13.77;12.48;;;15.10;99.90;;;;;;5073850;28;20116;-48
2023/05/09 02:19:56;;;;;;;14.02;12.57;;;15.10;99.90;;;;;;5074185;28;20556;-50
2023/05/09 02:22:21;;;;;;;14.50;12.90;;;15.10;99.90;;;;;;5073892;28;20028;-47
2023/05/09 02:24:47;;;;;;;18.92;14.95;;;15.00;99.90;;;;;;5074137;28;20031;-48
2023/05/09 02:27:14;;;;;;;18.90;17.00;;;15.00;99.90;;;;;;5073576;28;20020;-48
2023/05/09 02:29:46;;;;;;;25.70;16.85;;;15.00;99.90;;;;;;5073989;28;20124;-48
2023/05/09 02:32:20;;;;;;;21.05;18.20;;;15.00;99.90;;;;;;5055802;28;20467;-48
2023/05/09 02:34:47;;;;;;;21.15;17.50;;;15.00;99.90;;;;;;5073636;28;20123;-50
2023/05/09 02:37:14;;;;;;;22.25;17.55;;;15.00;99.90;;;;;;5073655;28;20430;-48
2023/05/09 02:39:39;;;;;;;24.77;18.45;;;14.90;99.90;;;;;;5073834;28;20090;-45
2023/05/09 02:42:09;;;;;;;21.05;18.23;;;14.90;99.90;;;;;;5073405;28;20020;-51
2023/05/09 02:44:36;;;;;;;18.60;16.70;;;14.90;99.90;;;;;;5073651;28;20029;-48
2023/05/09 02:47:02;;;;;;;18.00;16.08;;;14.80;99.90;;;;;;5073135;28;20029;-47
2023/05/09 02:49:28;;;;;;;18.52;16.48;;;14.80;99.90;;;;;;5073626;28;20365;-50
2023/05/09 02:51:53;;;;;;;17.65;15.65;;;14.80;99.90;;;;;;5073626;28;20028;-49
2023/05/09 02:54:20;;;;;;;20.92;15.73;;;14.70;99.90;;;;;;5073468;28;20021;-51
2023/05/09 02:56:46;;;;;;;18.13;15.75;;;14.70;99.90;;;;;;5073057;28;20150;-49
2023/05/09 02:59:11;;;;;;;21.02;17.08;;;14.70;99.90;;;;;;5073576;28;20042;-48
2023/05/09 03:01:36;;;;;;;21.60;18.38;;;14.70;99.90;;;;;;5072954;28;20036;-47
2023/05/09 03:04:02;;;;;;;20.55;18.35;;;14.70;99.90;;;;;;5072307;28;20609;-49
2023/05/09 03:06:28;;;;;;;20.75;18.23;;;14.70;99.90;;;;;;5072806;28;20033;-45
2023/05/09 03:08:53;;;;;;;21.83;19.52;;;14.80;99.90;;;;;;5055373;28;20112;-47
2023/05/09 03:11:19;;;;;;;23.10;18.65;;;14.70;99.90;;;;;;5073130;28;20021;-46
2023/05/09 03:13:44;;;;;;;24.27;19.35;;;14.70;99.90;;;;;;5073043;28;20075;-47
2023/05/09 03:16:14;;;;;;;22.88;18.73;;;14.70;99.90;;;;;;5073074;28;20086;-47
2023/05/09 03:18:39;;;;;;;22.90;18.55;;;14.70;99.90;;;;;;5072894;28;20029;-43
2023/05/09 03:21:05;;;;;;;25.50;20.08;;;14.70;99.90;;;;;;5054688;28;20028;-45
2023/05/09 03:23:31;;;;;;;20.88;18.48;;;14.70;99.90;;;;;;5072950;28;20039;-47
2023/05/09 03:25:56;;;;;;;22.05;19.65;;;14.60;99.90;;;;;;5072914;28;20075;-49
2023/05/09 03:28:22;;;;;;;23.90;20.05;;;14.60;99.90;;;;;;5072580;28;20020;-47
2023/05/09 03:30:48;;;;;;;25.30;19.13;;;14.60;99.90;;;;;;5072445;28;20025;-49
2023/05/09 03:33:14;;;;;;;25.25;19.75;;;14.60;99.90;;;;;;5072604;28;20634;-45
2023/05/09 03:35:39;;;;;;;25.65;19.08;;;14.60;99.90;;;;;;5072530;28;20096;-50
2023/05/09 03:38:05;;;;;;;22.45;19.63;;;14.50;99.90;;;;;;5072872;28;20025;-45
2023/05/09 03:40:30;;;;;;;23.15;19.77;;;14.70;99.90;;;;;;5072697;28;20048;-44
2023/05/09 03:42:56;;;;;;;26.27;20.20;;;14.60;99.90;;;;;;5072626;28;20032;-46
2023/05/09 03:45:21;;;;;;;22.42;20.02;;;14.50;99.90;;;;;;5072382;28;20036;-50
2023/05/09 03:47:46;;;;;;;25.13;19.92;;;14.50;99.90;;;;;;5072158;28;20492;-52
2023/05/09 03:50:12;;;;;;;22.45;19.77;;;14.40;99.90;;;;;;5072385;28;20029;-47
2023/05/09 03:52:38;;;;;;;21.23;18.63;;;14.40;99.90;;;;;;5072583;28;20025;-50
2023/05/09 03:55:04;;;;;;;25.88;19.10;;;14.40;99.90;;;;;;5071612;28;20095;-50
2023/05/09 03:57:30;;;;;;;22.00;18.85;;;14.40;99.90;;;;;;5054015;28;20051;-44
2023/05/09 03:59:55;;;;;;;21.10;18.90;;;14.40;99.90;;;;;;5072372;28;20036;-49
2023/05/09 04:02:22;;;;;;;18.80;16.80;;;14.40;99.90;;;;;;5071828;28;20033;-45
2023/05/09 04:04:48;;;;;;;21.08;17.58;;;14.40;99.90;;;;;;5071026;28;20113;-44
2023/05/09 04:07:14;;;;;;;25.50;17.98;;;14.50;99.90;;;;;;5071599;28;20047;-45
2023/05/09 04:09:41;;;;;;;17.80;15.90;;;14.50;99.90;;;;;;5072452;28;20025;-50
2023/05/09 04:12:07;;;;;;;19.25;16.48;;;14.50;99.90;;;;;;5071702;28;20017;-48
2023/05/09 04:14:33;;;;;;;19.33;16.83;;;14.50;99.90;;;;;;5071983;28;20020;-45
2023/05/09 04:16:58;;;;;;;21.70;18.25;;;14.40;99.90;;;;;;5071619;28;20024;-47
2023/05/09 04:19:24;;;;;;;18.85;16.23;;;14.40;99.90;;;;;;5072117;28;20395;-51
2023/05/09 04:21:49;;;;;;;22.75;18.17;;;14.40;99.90;;;;;;5071618;28;20024;-45
2023/05/09 04:24:15;;;;;;;21.27;18.23;;;14.50;99.90;;;;;;5071859;28;20102;-49
2023/05/09 04:26:40;;;;;;;21.58;17.48;;;14.50;99.90;;;;;;5071540;28;20068;-48
2023/05/09 04:29:06;;;;;;;22.52;18.42;;;14.50;99.90;;;;;;5071896;28;20058;-45
2023/05/09 04:31:31;;;;;;;20.15;17.95;;;14.60;99.90;;;;;;5071421;28;20028;-48
2023/05/09 04:33:57;;;;;;;20.60;17.67;;;14.60;99.90;;;;;;5071620;28;20020;-48
2023/05/09 04:36:23;;;;;;;18.73;16.73;;;14.70;99.90;;;;;;5071659;28;20439;-49
2023/05/09 04:38:48;;;;;;;20.90;18.48;;;14.70;99.90;;;;;;5071402;28;20068;-47
2023/05/09 04:41:15;;;;;;;22.92;17.33;;;14.80;99.90;;;;;;5071496;28;20480;-48
2023/05/09 04:43:41;;;;;;;24.95;18.33;;;14.80;99.90;;;;;;5071731;28;20148;-45
2023/05/09 04:46:07;;;;;;;21.48;18.13;;;14.80;99.90;;;;;;5071284;28;20519;-48
2023/05/09 04:48:33;;;;;;;21.23;17.67;;;14.80;99.90;;;;;;5071252;28;20021;-47
2023/05/09 04:50:59;;;;;;;21.90;18.80;;;14.90;99.90;;;;;;5071169;28;20085;-51
2023/05/09 04:53:27;;;;;;;24.02;20.08;;;14.80;99.90;;;;;;5071746;28;20404;-44
2023/05/09 04:55:53;;;;;;;24.92;19.80;;;14.90;99.90;;;;;;5071057;28;20021;-44
2023/05/09 04:58:19;;;;;;;21.73;18.65;;;14.90;99.90;;;;;;5070930;28;20082;-45
2023/05/09 05:00:45;;;;;;;20.50;18.35;;;15.10;99.90;;;;;;5071175;28;20480;-46
2023/05/09 05:03:10;;;;;;;22.25;18.35;;;15.10;99.90;;;;;;5070389;28;20393;-44
2023/05/09 05:05:36;;;;;;;19.45;17.45;;;15.10;99.90;;;;;;5053012;28;20135;-45
2023/05/09 05:08:02;;;;;;;25.17;18.73;;;15.10;99.90;;;;;;5070781;28;20028;-47
2023/05/09 05:10:29;;;;;;;21.25;18.67;;;15.20;99.90;;;;;;5071139;28;20090;-47
2023/05/09 05:12:54;;;;;;;18.90;16.95;;;15.10;99.90;;;;;;5071262;28;20411;-50
2023/05/09 05:15:20;;;;;;;18.98;16.50;;;15.50;99.90;;;;;;5071349;28;20035;-48
2023/05/09 05:17:45;;;;;;;19.20;17.13;;;15.90;99.90;;;;;;5070776;28;20401;-50
2023/05/09 05:20:11;;;;;;;19.05;14.80;;;16.10;99.90;;;;;;5071199;28;20025;-48
2023/05/09 05:22:36;;;;;;;19.67;14.88;;;16.40;99.90;;;;;;5070908;28;20060;-51
2023/05/09 05:25:03;;;;;;;17.85;15.93;;;16.50;99.90;;;;;;5070988;28;20035;-45
2023/05/09 05:27:28;;;;;;;17.90;15.93;;;16.60;99.90;;;;;;5052340;28;20028;-52
2023/05/09 05:29:54;;;;;;;18.75;14.73;;;16.60;99.90;;;;;;5053241;28;20120;-48
2023/05/09 05:32:19;;;;;;;19.02;15.73;;;16.60;99.90;;;;;;5070654;28;20043;-45
2023/05/09 05:34:45;;;;;;;19.77;15.63;;;16.60;99.90;;;;;;5071470;28;20039;-51
2023/05/09 05:37:10;;;;;;;20.90;17.15;;;16.60;99.90;;;;;;5070745;28;20082;-46
2023/05/09 05:39:36;;;;;;;17.17;15.38;;;16.60;99.90;;;;;;5071373;28;20104;-48
2023/05/09 05:42:02;;;;;;;15.70;13.98;;;16.70;99.90;;;;;;5071011;28;20507;-43
2023/05/09 05:44:27;;;;;;;19.52;15.32;;;16.80;99.90;;;;;;5071021;28;20025;-48
2023/05/09 05:46:53;;;;;;;18.05;15.73;;;16.90;99.90;;;;;;5070873;28;20020;-46
2023/05/09 05:49:18;;;;;;;16.15;14.45;;;16.80;99.90;;;;;;5071240;28;20035;-45
2023/05/09 05:51:44;;;;;;;20.73;14.88;;;16.60;99.90;;;;;;5070617;28;20028;-48
2023/05/09 05:54:09;;;;;;;20.27;15.68;;;16.60;99.90;;;;;;5070707;28;20103;-49
2023/05/09 05:56:35;;;;;;;17.23;15.25;;;16.50;99.90;;;;;;5070922;28;20408;-47
2023/05/09 05:59:01;;;;;;;16.85;15.07;;;16.50;99.90;;;;;;5070821;28;20040;-46
2023/05/09 06:01:26;;;;;;;21.63;16.38;;;16.40;99.90;;;;;;5070783;28;20396;-47
2023/05/09 06:03:54;;;;;;;18.50;15.20;;;16.30;99.90;;;;;;5070455;28;20056;-51
2023/05/09 06:06:21;;;;;;;16.13;14.52;;;16.20;99.90;;;;;;5070626;28;20103;-45
2023/05/09 06:08:48;;;;;;;20.92;15.63;;;16.20;99.90;;;;;;5052675;28;20055;-47
2023/05/09 06:11:17;;;;;;;17.83;15.40;;;16.10;99.90;;;;;;5070491;28;20051;-47
2023/05/09 06:13:43;;;;;;;18.10;15.77;;;16.10;99.90;;;;;;5071486;28;20103;-46
2023/05/09 06:16:09;;;;;;;19.13;16.25;;;16.10;99.90;;;;;;5071069;28;20075;-47
2023/05/09 06:18:36;;;;;;;18.30;16.38;;;16.20;99.90;;;;;;5073211;28;20025;-48
2023/05/09 06:21:02;;;;;;;18.65;16.00;;;16.20;99.90;;;;;;5074693;28;20021;-46
2023/05/09 06:23:28;;;;;;;17.63;15.57;;;16.30;99.90;;;;;;5074423;28;20415;-46
2023/05/09 06:25:54;;;;;;;20.27;16.77;;;16.40;99.90;;;;;;5074916;28;20035;-47
2023/05/09 06:28:19;;;;;;;30.27;16.70;;;16.60;99.90;;;;;;5074584;28;20028;-48
2023/05/09 06:30:45;;;;;;;17.25;15.57;;;16.70;99.90;;;;;;5074977;28;20042;-52
2023/05/09 06:33:10;;;;;;;22.58;16.40;;;16.80;99.90;;;;;;5074336;28;20079;-47
2023/05/09 06:35:36;;;;;;;22.58;16.33;;;17.00;99.90;;;;;;5073885;28;20413;-48
2023/05/09 06:38:01;;;;;;;20.38;17.52;;;17.00;99.90;;;;;;5073939;28;20074;-47
2023/05/09 06:40:27;;;;;;;17.65;15.80;;;17.20;99.90;;;;;;5072433;28;20086;-50
2023/05/09 06:42:52;;;;;;;19.63;16.25;;;17.20;99.90;;;;;;5073724;28;20097;-46
2023/05/09 06:45:18;;;;;;;20.45;16.67;;;17.20;99.90;;;;;;5055944;28;20025;-46
2023/05/09 06:47:43;;;;;;;18.25;16.42;;;17.20;99.90;;;;;;5073400;28;20086;-49
2023/05/09 06:50:09;;;;;;;23.15;17.15;;;17.20;99.90;;;;;;5073913;28;20082;-47
2023/05/09 06:52:35;;;;;;;18.13;16.15;;;17.20;99.90;;;;;;5073488;28;20153;-48
2023/05/09 06:55:00;;;;;;;24.80;17.48;;;17.30;99.90;;;;;;5074892;28;20041;-48
2023/05/09 06:57:26;;;;;;;20.02;16.50;;;17.30;99.90;;;;;;5073252;28;20028;-46
2023/05/09 06:59:51;;;;;;;18.50;14.70;;;17.30;99.90;;;;;;5073694;28;20024;-46
2023/05/09 07:02:17;;;;;;;21.83;17.17;;;17.30;99.90;;;;;;5073019;28;20067;-48
2023/05/09 07:04:42;;;;;;;18.42;16.52;;;17.30;99.90;;;;;;5071942;28;20063;-48
2023/05/09 07:07:08;;;;;;;18.77;15.77;;;17.30;99.90;;;;;;5072850;28;20391;-45
2023/05/09 07:09:33;;;;;;;18.63;16.65;;;17.40;99.90;;;;;;5073305;28;20021;-44
2023/05/09 07:11:59;;;;;;;18.17;16.27;;;17.50;99.90;;;;;;5073077;28;20107;-48
2023/05/09 07:14:25;;;;;;;18.75;16.58;;;17.50;99.90;;;;;;5055211;28;20021;-46
2023/05/09 07:16:51;;;;;;;23.83;17.35;;;17.60;99.90;;;;;;5072805;28;20037;-48
2023/05/09 07:19:16;;;;;;;19.73;15.98;;;17.60;99.90;;;;;;5073171;28;20492;-44
2023/05/09 07:21:42;;;;;;;23.45;19.02;;;17.70;99.90;;;;;;5072875;28;20107;-46
2023/05/09 07:24:07;;;;;;;22.90;19.80;;;17.60;99.90;;;;;;5072686;28;20442;-45
2023/05/09 07:26:34;;;;;;;27.02;18.88;;;17.50;99.90;;;;;;5072607;28;20488;-46
2023/05/09 07:29:00;;;;;;;22.33;18.50;;;17.40;99.90;;;;;;5072362;28;20066;-45
2023/05/09 07:31:25;;;;;;;29.88;19.33;;;17.30;99.90;;;;;;5072491;28;20052;-49
2023/05/09 07:33:51;;;;;;;23.08;18.25;;;17.20;99.90;;;;;;5054798;28;20116;-46
2023/05/09 07:36:16;;;;;;;23.92;17.75;;;17.20;99.90;;;;;;5072784;28;20480;-48
2023/05/09 07:38:42;;;;;;;22.63;19.95;;;17.10;99.90;;;;;;5072300;28;20063;-48
2023/05/09 07:41:07;;;;;;;23.40;20.08;;;17.10;99.90;;;;;;5072409;28;20034;-52
2023/05/09 07:43:33;;;;;;;22.45;18.38;;;17.20;99.90;;;;;;5072752;28;20419;-45
2023/05/09 07:45:59;;;;;;;25.52;20.88;;;17.20;99.90;;;;;;5072548;28;20028;-46
2023/05/09 07:48:25;;;;;;;23.65;19.00;;;17.30;99.90;;;;;;5072284;28;20042;-46
2023/05/09 07:50:50;;;;;;;28.08;20.05;;;17.40;99.90;;;;;;5071312;28;20404;-49
2023/05/09 07:53:16;;;;;;;35.08;23.05;;;17.40;99.90;;;;;;5069912;28;20024;-52
2023/05/09 07:55:43;;;;;;;35.40;21.52;;;17.40;99.90;;;;;;5053843;28;20052;-46
2023/05/09 07:58:09;;;;;;;35.13;22.63;;;17.40;99.90;;;;;;5071890;28;20024;-51
2023/05/09 08:00:34;;;;;;;34.42;22.00;;;17.40;99.90;;;;;;5074836;28;20498;-50
2023/05/09 08:03:00;;;;;;;31.52;22.60;;;17.30;99.90;;;;;;5078063;28;20032;-48
2023/05/09 08:05:25;;;;;;;33.08;22.08;;;17.40;99.90;;;;;;5071650;28;20083;-47
2023/05/09 08:07:51;;;;;;;33.42;22.88;;;17.40;99.90;;;;;;5091602;28;20100;-51
2023/05/09 08:10:17;;;;;;;33.40;20.65;;;17.50;99.90;;;;;;5085754;28;20138;-51
2023/05/09 08:12:42;;;;;;;36.63;25.00;;;17.50;99.90;;;;;;5071865;28;20028;-50
2023/05/09 08:15:08;;;;;;;35.85;23.77;;;17.50;99.90;;;;;;5071507;28;20037;-48
2023/05/09 08:17:33;;;;;;;32.03;21.55;;;17.50;99.90;;;;;;5072120;28;20099;-50
2023/05/09 08:19:59;;;;;;;38.28;23.55;;;17.50;99.90;;;;;;5070633;28;20463;-52
2023/05/09 08:22:25;;;;;;;32.05;21.52;;;17.50;99.90;;;;;;5071021;28;20572;-47
2023/05/09 08:24:50;;;;;;;31.65;22.23;;;17.50;99.90;;;;;;5053514;28;20060;-47
2023/05/09 08:27:16;;;;;;;33.45;22.23;;;17.40;99.90;;;;;;5071380;28;20523;-45
2023/05/09 08:29:42;;;;;;;32.05;21.95;;;17.50;99.90;;;;;;5071788;28;20025;-51
2023/05/09 08:32:08;;;;;;;30.83;22.08;;;17.50;99.90;;;;;;5071374;28;20031;-51
2023/05/09 08:34:34;;;;;;;31.25;22.05;;;17.50;99.90;;;;;;5053804;28;20020;-51
2023/05/09 08:37:00;;;;;;;31.70;23.02;;;17.50;99.90;;;;;;5071150;28;20538;-50
2023/05/09 08:39:26;;;;;;;30.45;22.02;;;17.40;99.90;;;;;;5073667;28;20041;-49
2023/05/09 08:41:56;;;;;;;36.05;24.15;;;17.40;99.90;;;;;;5091704;28;20028;-47
2023/05/09 08:44:23;;;;;;;34.42;23.23;;;17.40;99.90;;;;;;5091643;28;20028;-54
2023/05/09 08:46:51;;;;;;;35.63;22.92;;;17.30;99.90;;;;;;5070738;28;20028;-47
2023/05/09 08:49:19;;;;;;;31.83;23.17;;;17.30;99.90;;;;;;5071463;28;20024;-49
2023/05/09 08:51:46;;;;;;;30.83;23.13;;;17.40;99.90;;;;;;5071191;28;20472;-49
2023/05/09 08:54:12;;;;;;;31.05;23.17;;;17.40;99.90;;;;;;5071625;28;20538;-47
2023/05/09 08:56:38;;;;;;;33.58;23.15;;;17.50;99.90;;;;;;5070914;28;20037;-46
2023/05/09 08:59:04;;;;;;;30.27;22.40;;;17.50;99.90;;;;;;5071810;28;20035;-47
2023/05/09 09:01:32;;;;;;;32.60;21.65;;;17.60;99.90;;;;;;5071253;28;20021;-46
2023/05/09 09:03:59;;;;;;;30.35;23.30;;;17.70;99.90;;;;;;5071328;28;20381;-45
2023/05/09 09:06:24;;;;;;;24.60;20.40;;;17.90;99.90;;;;;;5071209;28;20024;-45
2023/05/09 09:08:53;;;;;;;23.98;21.00;;;18.10;99.90;;;;;;5070815;28;20035;-46
2023/05/09 09:11:21;;;;;;;32.83;22.15;;;18.30;99.90;;;;;;5071011;28;20078;-52
2023/05/09 09:13:48;;;;;;;29.95;21.17;;;18.50;99.90;;;;;;5071166;28;20099;-51
2023/05/09 09:16:21;;;;;;;29.83;20.95;;;18.50;99.90;;;;;;5071064;28;20027;-48
2023/05/09 09:18:50;;;;;;;29.25;21.95;;;18.70;99.90;;;;;;5052484;28;20036;-49
2023/05/09 09:21:18;;;;;;;25.83;20.88;;;18.70;99.90;;;;;;5084015;28;20089;-52
2023/05/09 09:23:46;;;;;;;27.27;21.00;;;18.60;99.90;;;;;;5056647;28;20060;-48
2023/05/09 09:26:13;;;;;;;28.77;21.65;;;18.60;99.90;;;;;;5062425;28;20516;-50
2023/05/09 09:28:39;;;;;;;28.60;22.00;;;18.60;99.90;;;;;;5072210;28;20107;-49
2023/05/09 09:31:21;;;;;;;27.00;21.50;;;18.50;99.90;;;;;;5052649;28;20120;-50
2023/05/09 09:33:47;;;;;;;28.88;22.55;;;18.50;99.90;;;;;;5081244;28;20028;-53
2023/05/09 09:36:13;;;;;;;32.47;23.58;;;18.60;99.90;;;;;;5074760;28;20048;-49
2023/05/09 09:38:40;;;;;;;28.88;21.88;;;18.40;99.90;;;;;;5077895;28;20511;-50
2023/05/09 09:41:06;;;;;;;29.05;22.27;;;18.40;99.90;;;;;;5072961;28;20112;-48
2023/05/09 09:43:31;;;;;;;32.58;22.02;;;18.40;99.90;;;;;;5089973;28;20826;-51
2023/05/09 09:46:01;;;;;;;25.38;21.95;;;18.50;99.90;;;;;;5072630;28;20025;-50
2023/05/09 09:48:31;;;;;;;29.90;23.40;;;18.70;99.90;;;;;;5071482;28;20519;-55
2023/05/09 09:50:56;;;;;;;30.77;22.88;;;18.80;99.90;;;;;;5073477;28;20365;-51
2023/05/09 09:53:22;;;;;;;27.55;22.08;;;18.90;99.90;;;;;;5074390;28;20078;-52
2023/05/09 09:55:52;;;;;;;28.02;22.35;;;18.90;99.90;;;;;;5076435;28;20107;-51
2023/05/09 09:58:20;;;;;;;28.88;22.52;;;18.80;99.90;;;;;;5075648;28;20021;-51
2023/05/09 10:00:46;;;;;;;31.42;22.33;;;18.80;99.90;;;;;;5074696;28;20028;-50
2023/05/09 10:03:16;;;;;;;29.90;24.30;;;18.80;99.90;;;;;;5076578;28;20399;-48
2023/05/09 10:05:42;;;;;;;31.23;23.80;;;18.90;99.90;;;;;;5081721;28;20023;-51
2023/05/09 10:08:08;;;;;;;27.55;21.23;;;18.90;99.90;;;;;;5096029;28;20028;-55
2023/05/09 10:10:35;;;;;;;29.77;21.90;;;19.00;99.90;;;;;;5096411;28;20024;-54
2023/05/09 10:13:06;;;;;;;30.13;21.70;;;19.10;99.90;;;;;;5096382;28;20031;-50
2023/05/09 10:15:34;;;;;;;32.38;22.67;;;19.20;99.90;;;;;;5090149;28;20031;-52
2023/05/09 10:18:03;;;;;;;50.72;37.85;;;19.30;99.90;;;;;;5073827;28;20035;-52
2023/05/09 10:20:29;;;;;;;36.13;26.52;;;19.50;99.90;;;;;;5074075;28;20025;-50
2023/05/09 10:22:59;;;;;;;33.67;24.25;;;19.70;99.90;;;;;;5074226;28;20028;-51
2023/05/09 10:25:32;;;;;;;28.52;20.52;;;19.80;99.90;;;;;;5073894;28;20071;-53
2023/05/09 10:28:00;;;;;;;26.80;19.75;;;19.80;99.90;;;;;;5073768;28;20531;-53
2023/05/09 10:30:38;;;;;;;23.92;19.13;;;19.90;99.90;;;;;;5056045;28;20025;-54
2023/05/09 10:33:09;;;;;;;37.92;19.88;;;19.80;99.90;;;;;;5073362;28;20051;-53
2023/05/09 10:35:39;;;;;;;31.17;19.98;;;19.80;99.90;;;;;;5075059;28;20028;-50
2023/05/09 10:38:06;;;;;;;26.52;18.25;;;19.80;99.90;;;;;;5056692;28;20044;-51
2023/05/09 10:40:33;;;;;;;20.98;17.67;;;19.90;99.90;;;;;;5074939;28;20036;-51
2023/05/09 10:42:59;;;;;;;24.20;18.27;;;19.80;99.90;;;;;;5074957;28;20098;-54
2023/05/09 10:45:25;;;;;;;19.63;16.70;;;19.80;99.90;;;;;;5073241;28;20021;-54
2023/05/09 10:47:52;;;;;;;20.17;16.77;;;19.70;99.90;;;;;;5074165;28;20034;-52
2023/05/09 10:50:20;;;;;;;20.63;17.83;;;19.70;99.90;;;;;;5090658;28;21623;-51
2023/05/09 10:53:05;;;;;;;20.23;15.60;;;19.60;99.90;;;;;;5070997;28;20025;-52
2023/05/09 10:55:51;;;;;;;16.83;14.95;;;19.70;99.90;;;;;;5072664;28;20060;-51
2023/05/09 10:58:20;;;;;;;17.50;15.48;;;19.70;99.90;;;;;;5072138;28;20021;-50
2023/05/09 11:00:50;;;;;;;21.55;16.98;;;19.70;99.90;;;;;;5072983;28;20051;-49
2023/05/09 11:03:18;;;;;;;24.05;18.33;;;19.80;99.90;;;;;;5053682;28;20116;-54
2023/05/09 11:05:44;;;;;;;23.17;19.05;;;20.00;99.90;;;;;;5053551;28;20080;-52
2023/05/09 11:08:28;;;;;;;21.75;19.42;;;20.00;99.90;;;;;;5054533;28;20078;-50
2023/05/09 11:10:56;;;;;;;26.00;18.80;;;19.90;99.90;;;;;;5057250;28;20032;-53
2023/05/09 11:13:24;;;;;;;24.95;19.98;;;19.80;99.90;;;;;;5075390;28;20678;-49
2023/05/09 11:16:00;;;;;;;26.73;20.20;;;19.70;99.90;;;;;;5059130;28;20112;-55
2023/05/09 11:18:27;;;;;;;29.23;21.33;;;19.70;99.90;;;;;;5039536;28;20028;-54
2023/05/09 11:20:54;;;;;;;23.58;20.00;;;19.80;99.90;;;;;;5073001;28;20028;-50
2023/05/09 11:23:32;;;;;;;27.30;18.45;;;19.80;99.90;;;;;;5073462;28;20029;-54
2023/05/09 11:26:06;;;;;;;24.65;19.13;;;20.00;99.90;;;;;;5072894;28;20408;-50
2023/05/09 11:28:34;;;;;;;38.60;29.07;;;20.10;99.90;;;;;;5072800;28;20042;-53
2023/05/09 11:31:14;;;;;;;29.05;22.27;;;20.20;99.90;;;;;;5072969;28;20016;-53
2023/05/09 11:33:41;;;;;;;35.63;23.80;;;20.40;99.90;;;;;;5072947;28;20012;-47
2023/05/09 11:36:30;;;;;;;22.98;18.73;;;20.50;99.90;;;;;;5071545;28;20115;-50
2023/05/09 11:39:09;;;;;;;22.48;17.38;;;20.70;99.90;;;;;;5072881;28;20048;-49
2023/05/09 11:41:44;;;;;;;20.00;16.77;;;20.90;99.90;;;;;;5072083;28;20032;-53
2023/05/09 11:44:13;;;;;;;;;;;21.00;99.90;;;;;;5073088;28;20506;-50
2023/05/09 11:46:39;;;;;;;20.15;16.88;;;21.10;99.90;;;;;;5071761;28;19916;-53
2023/05/09 11:49:06;;;;;;;19.23;16.25;;;21.20;99.90;;;;;;5072535;28;20561;-55
2023/05/09 11:51:36;;;;;;;24.00;18.15;;;21.30;99.90;;;;;;5070932;28;20025;-53
2023/05/09 11:54:02;;;;;;;20.63;16.35;;;21.40;99.90;;;;;;5071880;28;20024;-52
2023/05/09 11:56:29;;;;;;;19.85;15.15;;;21.50;99.90;;;;;;5071688;28;20040;-53
2023/05/09 11:58:55;;;;;;;15.90;13.80;;;21.50;99.90;;;;;;5071519;28;20039;-55
2023/05/09 12:01:21;;;;;;;16.83;13.98;;;21.50;99.90;;;;;;5068611;28;20469;-59
2023/05/09 12:03:48;;;;;;;16.00;14.35;;;21.40;99.90;;;;;;5072076;28;20030;-52
2023/05/09 12:06:18;;;;;;;13.88;12.10;;;21.40;99.90;;;;;;5066871;28;20531;-48
2023/05/09 12:08:46;;;;;;;16.05;11.30;;;21.50;99.90;;;;;;5072313;28;20051;-51
2023/05/09 12:11:13;;;;;;;15.65;12.82;;;21.50;99.90;;;;;;5072022;28;20024;-49
2023/05/09 12:13:47;;;;;;;19.92;10.93;;;21.60;99.90;;;;;;5074303;28;20020;-47
2023/05/09 12:16:13;;;;;;;12.73;9.00;;;21.80;99.90;;;;;;5071916;28;20013;-48
2023/05/09 12:18:47;;;;;;;11.63;10.43;;;21.90;99.90;;;;;;5071900;28;20459;-49
2023/05/09 12:21:13;;;;;;;10.93;9.43;;;21.70;99.90;;;;;;5070093;28;20099;-47
2023/05/09 12:23:38;;;;;;;9.65;8.68;;;21.60;99.90;;;;;;5069183;28;20040;-51
2023/05/09 12:26:04;;;;;;;13.88;11.18;;;21.60;99.90;;;;;;5070872;28;20039;-48
2023/05/09 12:28:30;;;;;;;29.05;19.95;;;21.60;99.90;;;;;;5086513;28;20103;-49